Impacts TAF Board INFO
FOR SITUATIONAL AWARENESS. NOT TO BE USED FOR FLIGHT PLANNING PURPOSES.
IDs:

KEWR - Newark Intl, NJ, US

Issued at 0141 UTC 17 Dec 2017
Updated at 0230 UTC 17 Dec 2017
Potential Impact None Slight Moderate High
Time0151Z 17/03Z 17/04Z 17/05Z 17/06Z 17/07Z 17/08Z 17/09Z 17/10Z 17/11Z 17/12Z 17/13Z 17/14Z 17/15Z>>
Type OBS PRVL PRVL PRVL PRVL PRVL PRVL PRVL PRVL PRVL PRVL PRVL PRVL PRVL
VIS 10 >6 >6 >6 >6 >6 >6 >6 >6 >6 >6 >6 >6 >6
CIG 50 50 50 50 -- -- -- -- -- -- -- -- -- 70
Cover OVC BKN BKN BKN SCT SCT SCT SCT SCT SCT SCT SCT SCT BKN
FltCat VFR VFR VFR VFR VFR VFR VFR VFR VFR VFR VFR VFR VFR VFR
WX -- -- -- -- -- -- -- -- -- -- -- -- -- --
WDir 350 320 320 320 340 340 340 340 340 340 10 10 10 VRB
WSpd 6 9 9 9 6 6 6 6 6 6 6 6 6 4
WGst -- -- -- -- -- -- -- -- -- -- -- -- -- --

Raw TAF
KEWR 170141Z 1702/1806 32009KT P6SM BKN050
  FM170600 34006KT P6SM SCT050
  FM171200 01006KT P6SM SCT070
  FM171500 VRB04KT P6SM BKN070
  FM180200 VRB03KT P6SM BKN035


Raw METAR
KEWR 170151Z 35006KT 10SM SCT037 OVC050 03/M03 A3016 RMK AO2 SLP213 T00281033
KEWR 170051Z 31005KT 10SM FEW038 BKN050 OVC060 03/M03 A3014 RMK AO2 SLP205 T00331033
KEWR 162351Z 24008KT 10SM FEW050 OVC060 04/M04 A3009 RMK AO2 SLP189 T00391039 10039 20022 53027

METAR Board
Radar Display
Forecast Discussion

FOR SITUATIONAL AWARENESS. NOT TO BE USED FOR FLIGHT PLANNING PURPOSES.